createdAt,value
2022-07-28T00:00:31.667Z,89.57
2022-07-28T00:01:31.739Z,89.87
2022-07-28T00:02:31.768Z,89.67
2022-07-28T00:03:31.707Z,89.47
2022-07-28T00:04:31.642Z,89.47
2022-07-28T00:05:32.045Z,89.57
2022-07-28T00:06:31.642Z,89.67
2022-07-28T00:07:31.853Z,89.67
2022-07-28T00:08:31.643Z,89.87
2022-07-28T00:09:31.652Z,89.97
2022-07-28T00:10:31.606Z,90.01
2022-07-28T00:11:31.601Z,89.81
2022-07-28T00:12:31.640Z,89.51
2022-07-28T00:13:31.589Z,89.61
2022-07-28T00:14:31.582Z,89.51
2022-07-28T00:15:31.572Z,89.61
2022-07-28T00:16:31.619Z,89.61
2022-07-28T00:17:31.570Z,89.92
2022-07-28T00:18:31.553Z,89.71
2022-07-28T00:19:31.579Z,89.61
2022-07-28T00:20:31.598Z,89.71
2022-07-28T00:21:31.608Z,89.92
2022-07-28T00:22:31.564Z,90.32
2022-07-28T00:23:39.404Z,90.53
2022-07-28T00:24:31.519Z,90.42
2022-07-28T00:25:31.508Z,90.22
2022-07-28T00:26:31.499Z,90.22
2022-07-28T00:27:31.488Z,90.01
2022-07-28T00:28:31.501Z,89.92
2022-07-28T00:29:42.618Z,89.92
2022-07-28T00:30:31.475Z,89.71
2022-07-28T00:31:31.511Z,89.30
2022-07-28T00:32:31.458Z,89.61
2022-07-28T00:33:31.464Z,89.40
2022-07-28T00:34:31.445Z,89.16
2022-07-28T00:35:31.790Z,88.85
2022-07-28T00:36:31.428Z,88.65
2022-07-28T00:37:31.427Z,88.75
2022-07-28T00:38:31.537Z,88.75
2022-07-28T00:39:31.409Z,88.69
2022-07-28T00:40:31.406Z,88.90
2022-07-28T00:41:31.697Z,88.75
2022-07-28T00:42:31.949Z,89.40
2022-07-28T00:43:31.405Z,89.36
2022-07-28T00:44:31.377Z,89.30
2022-07-28T00:45:31.368Z,89.16
2022-07-28T00:46:31.875Z,88.96
2022-07-28T00:47:33.792Z,89.00
2022-07-28T00:48:31.364Z,89.10
2022-07-28T00:49:31.355Z,89.30
2022-07-28T00:50:31.336Z,89.51
2022-07-28T00:51:31.357Z,89.71
2022-07-28T00:52:32.264Z,89.92
2022-07-28T00:53:31.326Z,90.01
2022-07-28T00:54:31.315Z,90.26
2022-07-28T00:55:31.406Z,90.26
2022-07-28T00:56:31.356Z,90.36
2022-07-28T00:57:31.753Z,90.36
2022-07-28T00:58:31.306Z,90.47
2022-07-28T00:59:31.312Z,90.67
2022-07-28T01:00:31.283Z,90.77
2022-07-28T01:01:31.348Z,90.88
2022-07-28T01:02:31.424Z,90.88
2022-07-28T01:03:31.261Z,90.77
2022-07-28T01:04:31.455Z,90.98
2022-07-28T01:05:44.206Z,91.08
2022-07-28T01:06:31.231Z,91.18
2022-07-28T01:07:31.214Z,91.28
2022-07-28T01:08:31.240Z,91.28
2022-07-28T01:09:31.202Z,91.33
2022-07-28T01:10:31.291Z,91.33
2022-07-28T01:11:31.311Z,91.22
2022-07-28T01:12:31.191Z,91.08
2022-07-28T01:13:33.107Z,91.12
2022-07-28T01:14:31.461Z,91.12
2022-07-28T01:15:31.332Z,91.18
2022-07-28T01:16:31.234Z,91.18
2022-07-28T01:17:31.150Z,90.98
2022-07-28T01:18:31.180Z,90.77
2022-07-28T01:19:31.700Z,90.98
2022-07-28T01:20:31.763Z,91.33
2022-07-28T01:21:31.152Z,91.53
2022-07-28T01:22:31.849Z,91.74
2022-07-28T01:23:31.118Z,91.83
2022-07-28T01:24:31.251Z,91.94
2022-07-28T01:25:31.100Z,92.04
2022-07-28T01:26:31.102Z,92.04
2022-07-28T01:27:31.103Z,92.04
2022-07-28T01:28:31.088Z,92.14
2022-07-28T01:29:31.299Z,92.24
2022-07-28T01:30:31.086Z,92.24
2022-07-28T01:31:31.110Z,92.45
2022-07-28T01:32:31.069Z,92.65
2022-07-28T01:33:31.057Z,92.65
2022-07-28T01:34:31.061Z,92.65
2022-07-28T01:35:31.027Z,92.45
2022-07-28T01:36:31.032Z,92.35
2022-07-28T01:37:31.016Z,92.24
2022-07-28T01:38:31.017Z,92.14
2022-07-28T01:39:31.025Z,92.04
2022-07-28T01:40:31.007Z,92.04
2022-07-28T01:41:30.986Z,92.04
2022-07-28T01:42:30.997Z,92.04
2022-07-28T01:43:31.918Z,92.04
2022-07-28T01:44:31.495Z,91.83
2022-07-28T01:45:30.965Z,92.04
2022-07-28T01:46:31.028Z,91.74
2022-07-28T01:47:30.966Z,91.53
2022-07-28T01:48:31.028Z,91.53
2022-07-28T01:49:30.965Z,91.33
2022-07-28T01:50:30.938Z,91.43
2022-07-28T01:51:30.925Z,91.18
2022-07-28T01:52:30.934Z,90.98
2022-07-28T01:53:30.913Z,91.02
2022-07-28T01:54:30.924Z,91.02
2022-07-28T01:55:30.923Z,91.02
2022-07-28T01:56:30.893Z,91.02
2022-07-28T01:57:30.885Z,91.02
2022-07-28T01:58:30.886Z,91.02
2022-07-28T01:59:31.802Z,90.88
2022-07-28T02:00:30.883Z,90.92
2022-07-28T02:01:30.912Z,91.02
2022-07-28T02:02:30.872Z,90.92
2022-07-28T02:03:30.843Z,91.02
2022-07-28T02:04:30.904Z,91.02
2022-07-28T02:05:30.891Z,90.92
2022-07-28T02:06:30.836Z,90.81
2022-07-28T02:07:30.819Z,90.81
2022-07-28T02:08:30.825Z,90.81
2022-07-28T02:09:30.809Z,90.71
2022-07-28T02:10:30.862Z,90.81
2022-07-28T02:11:30.802Z,90.81
2022-07-28T02:12:30.812Z,90.92
2022-07-28T02:13:30.858Z,91.12
2022-07-28T02:14:31.189Z,91.22
2022-07-28T02:15:30.869Z,91.33
2022-07-28T02:16:30.773Z,91.33
2022-07-28T02:17:30.759Z,91.43
2022-07-28T02:18:31.106Z,91.47
2022-07-28T02:19:30.741Z,91.67
2022-07-28T02:20:30.870Z,91.88
2022-07-28T02:21:30.729Z,91.88
2022-07-28T02:22:30.729Z,91.67
2022-07-28T02:23:30.729Z,91.78
2022-07-28T02:24:30.830Z,91.78
2022-07-28T02:25:30.734Z,91.78
2022-07-28T02:26:30.689Z,91.88
2022-07-28T02:27:30.977Z,91.98
2022-07-28T02:28:30.697Z,92.29
2022-07-28T02:30:30.677Z,92.59
2022-07-28T02:31:31.209Z,92.74
2022-07-28T02:32:30.664Z,92.64
2022-07-28T02:33:58.634Z,92.84
2022-07-28T02:34:31.356Z,92.84
2022-07-28T02:35:31.988Z,92.74
2022-07-28T02:36:30.628Z,92.84
2022-07-28T02:37:30.663Z,92.84
2022-07-28T02:38:30.667Z,92.94
2022-07-28T02:39:30.637Z,93.15
2022-07-28T02:40:30.647Z,93.25
2022-07-28T02:41:30.596Z,93.15
2022-07-28T02:42:30.754Z,93.15
2022-07-28T02:43:49.989Z,93.15
2022-07-28T02:44:30.745Z,93.25
2022-07-28T02:45:30.895Z,93.45
2022-07-28T02:46:30.602Z,93.50
2022-07-28T02:47:30.576Z,93.60
2022-07-28T02:48:30.564Z,93.60
2022-07-28T02:49:30.544Z,93.60
2022-07-28T02:50:30.555Z,93.80
2022-07-28T02:51:30.533Z,94.01
2022-07-28T02:52:30.543Z,94.11
2022-07-28T02:53:30.544Z,94.32
2022-07-28T02:54:30.523Z,94.32
2022-07-28T02:55:30.522Z,94.42
2022-07-28T02:56:30.534Z,94.42
2022-07-28T02:57:30.492Z,94.73
2022-07-28T02:58:30.582Z,94.52
2022-07-28T02:59:30.545Z,94.37
2022-07-28T03:00:30.490Z,94.17
2022-07-28T03:01:30.485Z,93.86
2022-07-28T03:02:30.462Z,93.45
2022-07-28T03:03:30.451Z,93.35
2022-07-28T03:04:30.444Z,93.25
2022-07-28T03:05:30.469Z,93.35
2022-07-28T03:06:30.421Z,93.25
2022-07-28T03:07:30.411Z,93.15
2022-07-28T03:08:30.413Z,93.15
2022-07-28T03:09:30.399Z,93.05
2022-07-28T03:10:33.917Z,93.05
2022-07-28T03:11:30.398Z,93.15
2022-07-28T03:12:30.401Z,93.25
2022-07-28T03:13:30.640Z,93.45
2022-07-28T03:14:31.340Z,93.80
2022-07-28T03:15:30.370Z,94.01
2022-07-28T03:16:30.444Z,94.01
2022-07-28T03:17:30.357Z,94.17
2022-07-28T03:18:30.359Z,94.07
2022-07-28T03:19:30.329Z,93.86
2022-07-28T03:20:30.356Z,93.45
2022-07-28T03:21:30.328Z,93.35
2022-07-28T03:22:30.328Z,93.45
2022-07-28T03:23:30.309Z,93.55
2022-07-28T03:24:30.299Z,93.35
2022-07-28T03:26:56.278Z,93.45
2022-07-28T03:27:56.979Z,93.21
2022-07-28T03:28:56.549Z,92.90
2022-07-28T03:29:59.182Z,92.59
2022-07-28T03:30:56.387Z,92.49
2022-07-28T03:31:56.228Z,92.39
2022-07-28T03:32:56.235Z,92.94
2022-07-28T03:33:56.216Z,93.05
2022-07-28T03:34:56.237Z,93.00
2022-07-28T03:35:56.226Z,92.90
2022-07-28T03:36:56.206Z,92.69
2022-07-28T03:37:56.196Z,92.59
2022-07-28T03:38:56.205Z,92.39
2022-07-28T03:39:56.536Z,92.29
2022-07-28T03:40:56.186Z,92.19
2022-07-28T03:41:56.163Z,92.29
2022-07-28T03:42:56.458Z,92.49
2022-07-28T03:43:56.204Z,92.39
2022-07-28T03:44:56.872Z,92.29
2022-07-28T03:45:56.283Z,92.19
2022-07-28T03:46:56.138Z,92.08
2022-07-28T03:47:56.129Z,92.02
2022-07-28T03:48:57.105Z,92.02
2022-07-28T03:49:56.124Z,92.23
2022-07-28T03:50:56.122Z,92.43
2022-07-28T03:51:56.093Z,93.15
2022-07-28T03:52:56.104Z,93.15
2022-07-28T03:53:56.851Z,93.45
2022-07-28T03:54:56.082Z,93.40
2022-07-28T03:55:56.084Z,93.50
2022-07-28T03:56:56.063Z,93.50
2022-07-28T03:57:56.060Z,93.60
2022-07-28T03:58:56.920Z,93.70
2022-07-28T03:59:56.044Z,94.06
2022-07-28T04:00:56.235Z,94.36
2022-07-28T04:01:56.625Z,94.36
2022-07-28T04:02:56.176Z,94.36
2022-07-28T04:03:56.131Z,94.56
2022-07-28T04:04:56.181Z,94.87
2022-07-28T04:05:56.002Z,95.18
2022-07-28T04:06:56.021Z,95.07
2022-07-28T04:07:56.031Z,94.77
2022-07-28T04:08:56.021Z,94.42
2022-07-28T04:09:56.034Z,94.11
2022-07-28T04:10:55.971Z,94.01
2022-07-28T04:11:55.979Z,93.80
2022-07-28T04:12:55.962Z,93.91
2022-07-28T04:13:56.224Z,94.06
2022-07-28T04:14:56.280Z,94.06
2022-07-28T04:15:55.940Z,94.06
2022-07-28T04:16:56.049Z,94.26
2022-07-28T04:17:56.433Z,94.56
2022-07-28T04:18:56.294Z,94.67
2022-07-28T04:19:55.917Z,94.52
2022-07-28T04:20:55.912Z,94.21
2022-07-28T04:21:55.929Z,94.32
2022-07-28T04:22:56.319Z,94.21
2022-07-28T04:24:01.389Z,94.11
2022-07-28T04:24:55.917Z,94.01
2022-07-28T04:25:55.871Z,94.11
2022-07-28T04:26:55.890Z,93.80
2022-07-28T04:27:55.877Z,93.80
2022-07-28T04:28:56.237Z,93.80
2022-07-28T04:29:56.673Z,93.80
2022-07-28T04:30:55.888Z,93.80
2022-07-28T04:31:55.866Z,93.60
2022-07-28T04:32:56.697Z,93.60
2022-07-28T04:33:56.285Z,93.50
2022-07-28T04:34:56.778Z,93.50
2022-07-28T04:35:56.677Z,93.50
2022-07-28T04:36:55.825Z,93.60
2022-07-28T04:37:55.813Z,93.50
2022-07-28T04:38:55.826Z,93.50
2022-07-28T04:39:56.814Z,93.40
2022-07-28T04:40:55.785Z,93.25
2022-07-28T04:41:55.788Z,92.94
2022-07-28T04:42:56.166Z,92.84
2022-07-28T04:43:55.809Z,92.64
2022-07-28T04:44:55.877Z,92.84
2022-07-28T04:45:55.770Z,93.05
2022-07-28T04:46:55.804Z,93.15
2022-07-28T04:47:55.762Z,93.05
2022-07-28T04:48:55.831Z,92.94
2022-07-28T04:49:55.790Z,92.90
2022-07-28T04:50:55.725Z,93.00
2022-07-28T04:51:57.129Z,92.90
2022-07-28T04:52:55.722Z,92.69
2022-07-28T04:53:55.925Z,92.90
2022-07-28T04:54:56.010Z,92.69
2022-07-28T04:55:56.003Z,92.69
2022-07-28T04:56:55.693Z,92.39
2022-07-28T04:57:56.182Z,92.29
2022-07-28T04:58:55.694Z,92.19
2022-07-28T04:59:56.767Z,91.94
2022-07-28T05:00:55.691Z,91.83
2022-07-28T05:01:55.651Z,91.83
2022-07-28T05:02:56.491Z,91.94
2022-07-28T05:03:56.551Z,91.83
2022-07-28T05:04:56.506Z,91.33
2022-07-28T05:05:55.608Z,91.43
2022-07-28T05:06:55.620Z,91.22
2022-07-28T05:07:56.229Z,90.98
2022-07-28T05:08:55.628Z,90.88
2022-07-28T05:09:55.647Z,90.88
2022-07-28T05:10:55.573Z,90.36
2022-07-28T05:11:55.579Z,90.26
2022-07-28T05:12:56.058Z,89.92
2022-07-28T05:13:56.163Z,90.01
2022-07-28T05:14:56.170Z,89.10
2022-07-28T05:15:55.538Z,89.00
2022-07-28T05:16:55.619Z,88.90
2022-07-28T05:17:56.209Z,88.69
2022-07-28T05:18:55.978Z,88.55
2022-07-28T05:19:55.528Z,87.84
2022-07-28T05:20:55.532Z,88.00
2022-07-28T05:21:55.507Z,87.69
2022-07-28T05:22:55.517Z,87.90
2022-07-28T05:23:55.490Z,87.65
2022-07-28T05:24:55.496Z,87.24
2022-07-28T05:25:55.706Z,86.43
2022-07-28T05:26:55.468Z,86.33
2022-07-28T05:27:55.487Z,86.22
2022-07-28T05:28:55.579Z,86.19
2022-07-28T05:29:55.887Z,85.98
2022-07-28T05:30:55.452Z,86.08
2022-07-28T05:31:55.504Z,85.33
2022-07-28T05:32:56.025Z,84.82
2022-07-28T05:33:55.444Z,84.28
2022-07-28T05:34:55.487Z,83.76
2022-07-28T05:35:55.407Z,83.53
2022-07-28T05:36:55.406Z,83.01
2022-07-28T05:37:55.670Z,82.57
2022-07-28T05:38:55.747Z,82.12
2022-07-28T05:39:55.796Z,82.33
2022-07-28T05:40:55.374Z,81.62
2022-07-28T05:41:55.377Z,81.38
2022-07-28T05:42:55.386Z,80.46
2022-07-28T05:43:55.363Z,80.06
2022-07-28T05:44:55.454Z,80.16
2022-07-28T05:45:55.402Z,80.93
2022-07-28T05:46:55.334Z,79.51
2022-07-28T05:47:56.134Z,79.82
2022-07-28T05:48:55.849Z,80.22
2022-07-28T05:49:56.236Z,79.88
2022-07-28T05:50:55.363Z,79.88
2022-07-28T05:51:55.301Z,80.08
2022-07-28T05:52:55.326Z,78.73
2022-07-28T05:53:55.286Z,78.33
2022-07-28T05:54:55.644Z,77.82
2022-07-28T05:56:00.182Z,77.51
2022-07-28T05:56:55.335Z,77.01
2022-07-28T05:57:55.341Z,76.50
2022-07-28T05:58:55.281Z,76.50
2022-07-28T05:59:55.301Z,76.20
2022-07-28T06:00:55.379Z,76.36
2022-07-28T06:01:55.310Z,76.36
2022-07-28T06:02:55.411Z,75.96
2022-07-28T06:04:03.642Z,76.12
2022-07-28T06:04:55.544Z,76.46
2022-07-28T06:06:00.591Z,75.96
2022-07-28T06:06:55.211Z,75.35
2022-07-28T06:07:55.571Z,75.45
2022-07-28T06:08:55.568Z,76.60
2022-07-28T06:09:55.181Z,75.79
2022-07-28T06:10:55.373Z,75.93
2022-07-28T06:11:55.375Z,76.74
2022-07-28T06:12:55.989Z,76.74
2022-07-28T06:13:55.161Z,76.74
2022-07-28T06:14:55.183Z,76.70
2022-07-28T06:15:56.001Z,76.60
2022-07-28T06:16:55.217Z,75.25
2022-07-28T06:17:55.471Z,74.84
2022-07-28T06:18:55.289Z,75.15
2022-07-28T06:19:55.410Z,75.99
2022-07-28T06:20:55.531Z,76.50
2022-07-28T06:21:55.130Z,76.80
2022-07-28T06:22:55.433Z,76.90
2022-07-28T06:23:55.169Z,76.29
2022-07-28T06:24:55.109Z,76.43
2022-07-28T06:25:55.092Z,76.33
2022-07-28T06:26:55.078Z,77.55
2022-07-28T06:27:55.087Z,76.94
2022-07-28T06:28:55.066Z,77.65
2022-07-28T06:29:55.048Z,77.14
2022-07-28T06:30:55.050Z,77.45
2022-07-28T06:31:55.106Z,77.34
2022-07-28T06:32:55.058Z,77.45
2022-07-28T06:33:55.078Z,77.95
2022-07-28T06:34:55.027Z,78.63
2022-07-28T06:35:55.027Z,77.72
2022-07-28T06:36:55.007Z,77.82
2022-07-28T06:37:55.161Z,76.77
2022-07-28T06:38:55.008Z,76.83
2022-07-28T06:39:54.985Z,76.03
2022-07-28T06:40:55.006Z,75.38
2022-07-28T06:41:54.965Z,74.98
2022-07-28T06:42:54.991Z,75.04
2022-07-28T06:43:54.993Z,74.10
2022-07-28T06:44:59.442Z,73.49
2022-07-28T06:45:54.945Z,73.08
2022-07-28T06:46:55.029Z,73.28
2022-07-28T06:47:55.575Z,74.30
2022-07-28T06:48:55.030Z,74.54
2022-07-28T06:49:54.924Z,73.83
2022-07-28T06:50:54.913Z,73.22
2022-07-28T06:51:54.925Z,73.93
2022-07-28T06:52:54.926Z,74.03
2022-07-28T06:53:54.905Z,74.03
2022-07-28T06:54:58.090Z,73.19
2022-07-28T06:55:54.885Z,73.28
2022-07-28T06:56:54.883Z,72.99
2022-07-28T06:57:54.879Z,72.34
2022-07-28T06:58:54.883Z,71.30
2022-07-28T06:59:54.896Z,71.64
2022-07-28T07:00:54.922Z,71.50
2022-07-28T07:01:54.857Z,70.79
2022-07-28T07:02:54.833Z,70.59
2022-07-28T07:03:54.881Z,70.86
2022-07-28T07:04:54.813Z,69.85
2022-07-28T07:05:54.813Z,69.65
2022-07-28T07:06:54.803Z,69.01
2022-07-28T07:07:54.814Z,69.31
2022-07-28T07:08:54.787Z,68.01
2022-07-28T07:09:54.782Z,68.51
2022-07-28T07:10:54.783Z,68.21
2022-07-28T07:11:54.771Z,68.37
2022-07-28T07:12:54.779Z,68.68
2022-07-28T07:13:54.754Z,68.37
2022-07-28T07:14:54.743Z,68.17
2022-07-28T07:15:54.829Z,68.68
2022-07-28T07:16:54.740Z,68.71
2022-07-28T07:17:54.746Z,69.11
2022-07-28T07:18:54.722Z,69.31
2022-07-28T07:19:54.741Z,68.71
2022-07-28T07:20:54.795Z,70.06
2022-07-28T07:21:54.702Z,69.45
2022-07-28T07:22:54.702Z,69.04
2022-07-28T07:23:54.681Z,68.91
2022-07-28T07:24:57.147Z,68.48
2022-07-28T07:25:54.691Z,68.81
2022-07-28T07:26:54.671Z,69.01
2022-07-28T07:27:54.673Z,68.57
2022-07-28T07:28:54.682Z,68.27
2022-07-28T07:29:54.652Z,67.63
2022-07-28T07:30:54.645Z,67.84
2022-07-28T07:31:54.692Z,67.30
2022-07-28T07:32:54.619Z,67.23
2022-07-28T07:33:54.631Z,67.43
2022-07-28T07:34:54.601Z,66.90
2022-07-28T07:35:54.610Z,67.00
2022-07-28T07:36:54.611Z,65.96
2022-07-28T07:37:54.598Z,65.46
2022-07-28T07:38:54.651Z,65.83
2022-07-28T07:39:54.591Z,65.12
2022-07-28T07:40:54.608Z,64.92
2022-07-28T07:41:54.590Z,65.66
2022-07-28T07:42:54.570Z,65.53
2022-07-28T07:43:54.579Z,64.62
2022-07-28T07:44:55.261Z,64.92
2022-07-28T07:45:55.341Z,64.69
2022-07-28T07:46:55.397Z,64.59
2022-07-28T07:47:54.894Z,65.93
2022-07-28T07:48:54.607Z,65.12
2022-07-28T07:49:54.557Z,64.99
2022-07-28T07:50:54.698Z,64.79
2022-07-28T07:51:54.514Z,64.46
2022-07-28T07:52:54.491Z,63.62
2022-07-28T07:53:54.508Z,64.33
2022-07-28T07:54:54.478Z,63.42
2022-07-28T07:55:54.477Z,62.99
2022-07-28T07:56:54.481Z,61.88
2022-07-28T07:57:54.473Z,61.69
2022-07-28T07:58:57.092Z,61.88
2022-07-28T07:59:54.479Z,62.72
2022-07-28T08:00:54.459Z,62.05
2022-07-28T08:01:54.481Z,63.22
2022-07-28T08:02:54.438Z,63.12
2022-07-28T08:03:54.452Z,63.56
2022-07-28T08:04:54.592Z,63.15
2022-07-28T08:05:54.453Z,63.93
2022-07-28T08:06:54.396Z,63.62
2022-07-28T08:07:54.401Z,63.19
2022-07-28T08:08:54.492Z,62.29
2022-07-28T08:09:54.390Z,61.91
2022-07-28T08:10:54.449Z,62.08
2022-07-28T08:11:54.370Z,62.66
2022-07-28T08:12:54.367Z,61.66
2022-07-28T08:13:54.407Z,62.59
2022-07-28T08:14:54.355Z,62.49
2022-07-28T08:15:54.359Z,62.08
2022-07-28T08:16:54.345Z,62.49
2022-07-28T08:17:54.326Z,61.66
2022-07-28T08:18:54.336Z,60.82
2022-07-28T08:19:54.329Z,61.13
2022-07-28T08:20:54.308Z,60.42
2022-07-28T08:21:54.296Z,60.39
2022-07-28T08:22:54.296Z,60.32
2022-07-28T08:23:54.305Z,60.80
2022-07-28T08:24:54.291Z,61.33
2022-07-28T08:25:54.276Z,61.76
2022-07-28T08:26:54.263Z,61.52
2022-07-28T08:27:54.316Z,61.00
2022-07-28T08:28:54.268Z,59.56
2022-07-28T08:29:54.326Z,60.16
2022-07-28T08:30:54.267Z,60.89
2022-07-28T08:31:54.398Z,59.36
2022-07-28T08:32:56.745Z,59.53
2022-07-28T08:33:54.927Z,59.74
2022-07-28T08:35:15.862Z,59.77
2022-07-28T08:35:54.325Z,60.27
2022-07-28T08:36:54.195Z,60.24
2022-07-28T08:37:54.330Z,59.77
2022-07-28T08:38:54.325Z,59.96
2022-07-28T08:39:54.221Z,60.06
2022-07-28T08:40:54.165Z,60.10
2022-07-28T08:41:54.174Z,61.19
2022-07-28T08:42:54.305Z,60.77
2022-07-28T08:43:54.176Z,60.69
2022-07-28T08:44:54.332Z,59.96
2022-07-28T08:45:58.266Z,59.96
2022-07-28T08:46:54.357Z,59.66
2022-07-28T08:48:07.670Z,59.13
2022-07-28T08:48:54.307Z,58.81
2022-07-28T08:49:54.114Z,58.98
2022-07-28T08:50:54.095Z,58.68
2022-07-28T08:51:54.334Z,58.65
2022-07-28T08:52:54.122Z,59.35
2022-07-28T08:53:54.129Z,59.31
2022-07-28T08:54:54.064Z,60.27
2022-07-28T08:55:54.072Z,61.27
2022-07-28T08:56:54.356Z,60.77
2022-07-28T08:57:54.336Z,60.66
2022-07-28T08:58:54.064Z,61.04
2022-07-28T08:59:54.335Z,60.11
2022-07-28T09:00:54.039Z,59.88
2022-07-28T09:01:57.474Z,59.18
2022-07-28T09:02:54.034Z,57.85
2022-07-28T09:03:54.031Z,57.12
2022-07-28T09:04:54.015Z,57.62
2022-07-28T09:05:54.003Z,57.32
2022-07-28T09:06:53.983Z,57.24
2022-07-28T09:07:54.808Z,57.45
2022-07-28T09:08:54.001Z,57.75
2022-07-28T09:09:57.334Z,57.45
2022-07-28T09:10:53.959Z,56.95
2022-07-28T09:11:53.952Z,56.72
2022-07-28T09:12:53.954Z,56.29
2022-07-28T09:13:54.291Z,56.07
2022-07-28T09:14:53.943Z,55.64
2022-07-28T09:15:53.993Z,55.94
2022-07-28T09:16:53.922Z,55.62
2022-07-28T09:17:53.960Z,55.21
2022-07-28T09:18:54.044Z,55.58
2022-07-28T09:19:53.917Z,53.79
2022-07-28T09:20:53.902Z,53.39
2022-07-28T09:21:53.913Z,53.77
2022-07-28T09:22:53.885Z,53.99
2022-07-28T09:23:53.901Z,53.79
2022-07-28T09:24:53.871Z,52.37
2022-07-28T09:25:53.864Z,52.87
2022-07-28T09:26:53.861Z,52.47
2022-07-28T09:27:54.343Z,52.07
2022-07-28T09:28:53.979Z,53.81
2022-07-28T09:29:53.845Z,54.71
2022-07-28T09:30:54.652Z,54.86
2022-07-28T09:31:57.206Z,56.49
2022-07-28T09:32:53.983Z,55.99
2022-07-28T09:33:53.879Z,56.57
2022-07-28T09:34:53.805Z,54.97
2022-07-28T09:35:53.801Z,55.34
2022-07-28T09:36:53.871Z,54.71
2022-07-28T09:37:53.793Z,53.79
2022-07-28T09:38:53.812Z,52.07
2022-07-28T09:39:53.781Z,52.37
2022-07-28T09:40:53.761Z,51.37
2022-07-28T09:41:53.762Z,53.19
2022-07-28T09:42:53.783Z,51.82
2022-07-28T09:43:55.865Z,52.69
2022-07-28T09:45:20.333Z,53.66
2022-07-28T09:45:53.832Z,52.44
2022-07-28T09:46:54.071Z,51.54
2022-07-28T09:47:54.193Z,52.04
2022-07-28T09:48:53.975Z,52.29
2022-07-28T09:49:53.735Z,52.69
2022-07-28T09:50:54.227Z,52.44
2022-07-28T09:51:54.296Z,52.14
2022-07-28T09:52:53.692Z,52.27
2022-07-28T09:53:53.711Z,52.87
2022-07-28T09:54:54.359Z,51.25
2022-07-28T09:55:53.672Z,51.97
2022-07-28T09:56:53.871Z,51.75
2022-07-28T09:57:54.260Z,51.22
2022-07-28T09:58:53.650Z,51.75
2022-07-28T09:59:55.743Z,49.95
2022-07-28T10:00:53.686Z,50.92
2022-07-28T10:01:53.802Z,49.70
2022-07-28T10:02:53.701Z,49.10
2022-07-28T10:03:53.672Z,49.40
2022-07-28T10:04:54.332Z,49.80
2022-07-28T10:05:54.027Z,49.51
2022-07-28T10:06:53.590Z,50.23
2022-07-28T10:07:53.598Z,51.52
2022-07-28T10:08:53.609Z,50.43
2022-07-28T10:09:54.361Z,51.62
2022-07-28T10:10:53.690Z,52.04
2022-07-28T10:11:53.591Z,52.72
2022-07-28T10:12:53.567Z,51.57
2022-07-28T10:13:53.588Z,52.14
2022-07-28T10:14:53.621Z,50.20
2022-07-28T10:15:53.660Z,49.51
2022-07-28T10:16:53.598Z,49.28
2022-07-28T10:17:53.728Z,49.43
2022-07-28T10:18:53.550Z,47.82
2022-07-28T10:19:53.627Z,47.42
2022-07-28T10:20:55.492Z,47.72
2022-07-28T10:21:53.740Z,48.04
2022-07-28T10:22:53.486Z,47.74
2022-07-28T10:23:53.480Z,47.64
2022-07-28T10:24:53.879Z,48.36
2022-07-28T10:25:53.658Z,49.53
2022-07-28T10:26:53.509Z,50.40
2022-07-28T10:27:53.491Z,49.78
2022-07-28T10:28:53.459Z,48.24
2022-07-28T10:29:53.477Z,47.72
2022-07-28T10:30:53.590Z,48.19
2022-07-28T10:31:53.832Z,48.59
2022-07-28T10:32:53.480Z,47.13
2022-07-28T10:33:53.440Z,47.44
2022-07-28T10:34:54.000Z,47.13
2022-07-28T10:35:55.046Z,46.90
2022-07-28T10:36:53.476Z,46.28
2022-07-28T10:37:53.390Z,46.68
2022-07-28T10:38:54.047Z,47.62
2022-07-28T10:39:53.634Z,46.92
2022-07-28T10:40:53.438Z,46.95
2022-07-28T10:41:53.381Z,48.83
2022-07-28T10:42:53.372Z,48.52
2022-07-28T10:43:53.359Z,48.02
2022-07-28T10:44:53.847Z,48.74
2022-07-28T10:46:14.153Z,47.92
2022-07-28T10:46:53.656Z,48.37
2022-07-28T10:47:53.739Z,47.45
2022-07-28T10:48:53.401Z,46.58
2022-07-28T10:49:53.410Z,45.96
2022-07-28T10:50:53.326Z,45.67
2022-07-28T10:52:06.534Z,45.61
2022-07-28T10:52:57.495Z,47.20
2022-07-28T10:53:54.589Z,46.78
2022-07-28T10:54:53.301Z,45.90
2022-07-28T10:55:53.289Z,45.68
2022-07-28T10:56:53.368Z,45.17
2022-07-28T10:58:02.072Z,45.50
2022-07-28T10:58:53.255Z,43.49
2022-07-28T10:59:58.192Z,42.78
2022-07-28T11:00:56.603Z,42.36
2022-07-28T11:01:53.329Z,42.74
2022-07-28T11:02:53.337Z,42.01
2022-07-28T11:03:53.272Z,40.50
2022-07-28T11:04:53.248Z,38.90
2022-07-28T11:05:53.690Z,39.09
2022-07-28T11:06:53.794Z,40.58
2022-07-28T11:07:53.219Z,42.30
2022-07-28T11:08:53.186Z,41.44
2022-07-28T11:09:53.822Z,42.35
2022-07-28T11:10:58.854Z,42.44
2022-07-28T11:11:53.242Z,40.74
2022-07-28T11:12:53.169Z,40.42
2022-07-28T11:13:53.158Z,39.50
2022-07-28T11:14:53.208Z,39.20
2022-07-28T11:15:54.129Z,38.81
2022-07-28T11:16:53.220Z,39.38
2022-07-28T11:17:53.218Z,39.89
2022-07-28T11:18:53.148Z,40.72
2022-07-28T11:20:24.906Z,41.81
2022-07-28T11:20:53.208Z,41.63
2022-07-28T11:21:53.569Z,42.03
2022-07-28T11:22:53.109Z,41.02
2022-07-28T11:23:53.098Z,39.62
2022-07-28T11:24:53.100Z,39.68
2022-07-28T11:25:53.269Z,40.31
2022-07-28T11:26:53.081Z,39.30
2022-07-28T11:27:53.080Z,39.26
2022-07-28T11:28:53.096Z,38.73
2022-07-28T11:29:53.160Z,39.31
2022-07-28T11:30:53.141Z,38.43
2022-07-28T11:31:53.040Z,38.42
2022-07-28T11:32:53.069Z,39.94
2022-07-28T11:33:53.060Z,39.76
2022-07-28T11:34:53.109Z,38.95
2022-07-28T11:35:53.027Z,38.67
2022-07-28T11:36:53.030Z,40.82
2022-07-28T11:37:53.021Z,40.70
2022-07-28T11:38:53.029Z,40.15
2022-07-28T11:39:53.019Z,39.12
2022-07-28T11:40:52.990Z,39.01
2022-07-28T11:41:52.981Z,37.85
2022-07-28T11:42:52.981Z,39.62
2022-07-28T11:43:52.970Z,39.72
2022-07-28T11:44:52.982Z,39.32
2022-07-28T11:45:56.153Z,38.35
2022-07-28T11:46:52.990Z,38.35
2022-07-28T11:47:52.961Z,38.04
2022-07-28T11:48:52.982Z,38.34
2022-07-28T11:49:52.969Z,38.54
2022-07-28T11:50:53.673Z,38.04
2022-07-28T11:51:52.922Z,38.73
2022-07-28T11:52:52.922Z,38.40
2022-07-28T11:53:53.015Z,37.69
2022-07-28T11:54:52.927Z,37.57
2022-07-28T11:56:02.322Z,36.90
2022-07-28T11:56:53.213Z,37.59
2022-07-28T11:57:54.030Z,37.87
2022-07-28T11:58:52.892Z,38.87
2022-07-28T11:59:53.434Z,38.10
2022-07-28T12:00:53.662Z,38.24
2022-07-28T12:01:52.965Z,40.80
2022-07-28T12:02:53.610Z,40.58
2022-07-28T12:03:56.203Z,40.35
2022-07-28T12:04:52.913Z,39.26
2022-07-28T12:05:52.892Z,37.74
2022-07-28T12:06:52.882Z,36.90
2022-07-28T12:07:52.992Z,37.41
2022-07-28T12:08:52.842Z,39.36
2022-07-28T12:09:52.820Z,39.64
2022-07-28T12:10:54.814Z,40.41
2022-07-28T12:11:52.853Z,37.81
2022-07-28T12:12:52.826Z,37.73
2022-07-28T12:13:52.798Z,38.34
2022-07-28T12:14:52.812Z,39.44
2022-07-28T12:15:52.902Z,39.06
2022-07-28T12:16:53.419Z,38.37
2022-07-28T12:17:52.783Z,38.43
2022-07-28T12:18:52.776Z,37.93
2022-07-28T12:19:52.782Z,38.29
2022-07-28T12:20:53.025Z,40.94
2022-07-28T12:21:52.969Z,40.50
2022-07-28T12:22:52.811Z,39.26
2022-07-28T12:23:52.742Z,39.23
2022-07-28T12:24:52.730Z,38.20
2022-07-28T12:25:52.762Z,38.18
2022-07-28T12:26:52.762Z,38.38
2022-07-28T12:27:52.713Z,37.24
2022-07-28T12:28:52.723Z,38.32
2022-07-28T12:29:52.703Z,38.02
2022-07-28T12:30:52.722Z,37.51
2022-07-28T12:31:52.760Z,38.04
2022-07-28T12:32:52.684Z,39.52
2022-07-28T12:33:53.669Z,37.95
2022-07-28T12:34:52.683Z,39.09
2022-07-28T12:35:52.693Z,39.52
2022-07-28T12:36:52.680Z,40.11
2022-07-28T12:37:52.673Z,39.26
2022-07-28T12:38:52.665Z,39.26
2022-07-28T12:39:52.666Z,38.24
2022-07-28T12:40:52.664Z,38.14
2022-07-28T12:41:52.642Z,38.93
2022-07-28T12:42:52.635Z,38.34
2022-07-28T12:43:52.638Z,39.04
2022-07-28T12:44:52.673Z,38.56
2022-07-28T12:45:52.680Z,37.93
2022-07-28T12:46:52.603Z,37.32
2022-07-28T12:47:52.603Z,37.14
2022-07-28T12:48:52.675Z,38.62
2022-07-28T12:49:57.850Z,38.83
2022-07-28T12:50:52.572Z,38.96
2022-07-28T12:51:52.572Z,39.18
2022-07-28T12:52:52.594Z,39.26
2022-07-28T12:53:52.564Z,39.56
2022-07-28T12:54:54.651Z,38.87